createdAt,value
2018-03-24T00:00:02.183Z,6.11
2018-03-24T00:01:02.143Z,6.03
2018-03-24T00:02:01.868Z,5.92
2018-03-24T00:03:02.131Z,6
2018-03-24T00:04:02.352Z,5.81
2018-03-24T00:05:02.128Z,5.81
2018-03-24T00:06:01.783Z,5.77
2018-03-24T00:07:02.030Z,5.77
2018-03-24T00:08:02.281Z,5.67
2018-03-24T00:09:01.996Z,5.64
2018-03-24T00:10:02.242Z,5.55
2018-03-24T00:11:02.216Z,5.5
2018-03-24T00:12:01.940Z,5.46
2018-03-24T00:13:01.913Z,5.48
2018-03-24T00:14:01.630Z,5.43
2018-03-24T00:15:01.613Z,5.28
2018-03-24T00:16:02.238Z,5.25
2018-03-24T00:17:02.108Z,5.28
2018-03-24T00:18:02.076Z,5.14
2018-03-24T00:19:01.792Z,5.19
2018-03-24T00:20:02.145Z,5.09
2018-03-24T00:21:01.753Z,5.12
2018-03-24T00:22:01.735Z,5.05
2018-03-24T00:23:01.984Z,4.98
2018-03-24T00:24:02.060Z,4.94
2018-03-24T00:25:01.991Z,5.01
2018-03-24T00:26:01.653Z,4.96
2018-03-24T00:27:01.641Z,4.89
2018-03-24T00:28:01.880Z,4.83
2018-03-24T00:29:01.858Z,4.84
2018-03-24T00:30:01.671Z,4.77
2018-03-24T00:31:01.296Z,4.75
2018-03-24T00:32:01.322Z,4.62
2018-03-24T00:33:01.631Z,4.7
2018-03-24T00:34:01.491Z,4.67
2018-03-24T00:35:01.521Z,4.7
2018-03-24T00:36:01.450Z,4.59
2018-03-24T00:37:01.160Z,4.7
2018-03-24T00:38:01.674Z,4.65
2018-03-24T00:39:01.652Z,4.67
2018-03-24T00:40:01.377Z,4.7
2018-03-24T00:41:01.080Z,4.67
2018-03-24T00:42:01.379Z,4.65
2018-03-24T00:43:01.581Z,4.67
2018-03-24T00:44:01.294Z,4.7
2018-03-24T00:45:01.526Z,4.73
2018-03-24T00:46:01.507Z,4.65
2018-03-24T00:47:01.224Z,4.69
2018-03-24T00:48:01.202Z,4.69
2018-03-24T00:49:00.913Z,4.72
2018-03-24T00:50:00.902Z,4.7
2018-03-24T00:51:01.173Z,4.7
2018-03-24T00:52:00.865Z,4.75
2018-03-24T00:53:01.369Z,4.75
2018-03-24T00:54:00.813Z,4.69
2018-03-24T00:55:01.326Z,4.69
2018-03-24T00:56:01.032Z,4.7
2018-03-24T00:57:01.278Z,4.62
2018-03-24T00:58:01.267Z,4.8
2018-03-24T00:59:00.972Z,4.73
2018-03-24T01:00:01.216Z,4.84
2018-03-24T01:01:00.968Z,4.88
2018-03-24T01:02:00.951Z,4.8
2018-03-24T01:03:01.207Z,4.8
2018-03-24T01:04:01.129Z,4.77
2018-03-24T01:05:01.206Z,4.8
2018-03-24T01:06:01.096Z,4.83
2018-03-24T01:07:00.800Z,4.76
2018-03-24T01:08:01.053Z,4.73
2018-03-24T01:09:00.524Z,4.67
2018-03-24T01:10:00.476Z,4.67
2018-03-24T01:11:00.723Z,4.55
2018-03-24T01:12:00.436Z,4.61
2018-03-24T01:13:00.972Z,4.55
2018-03-24T01:14:00.715Z,4.47
2018-03-24T01:15:00.910Z,4.46
2018-03-24T01:16:00.615Z,4.42
2018-03-24T01:17:00.869Z,4.43
2018-03-24T01:18:00.992Z,4.39
2018-03-24T01:19:00.468Z,4.37
2018-03-24T01:20:00.529Z,4.29
2018-03-24T01:21:00.290Z,4.21
2018-03-24T01:22:00.830Z,4.19
2018-03-24T01:23:00.484Z,4.18
2018-03-24T01:24:00.441Z,4.12
2018-03-24T01:25:00.698Z,4.14
2018-03-24T01:26:00.405Z,4.16
2018-03-24T01:27:00.511Z,4.06
2018-03-24T01:28:00.718Z,4.08
2018-03-24T01:29:00.653Z,4.15
2018-03-24T01:30:00.588Z,4.07
2018-03-24T01:31:00.348Z,4.03
2018-03-24T01:32:00.273Z,3.94
2018-03-24T01:33:00.514Z,3.92
2018-03-24T01:34:00.507Z,3.85
2018-03-24T01:35:00.280Z,3.8
2018-03-24T01:36:00.459Z,3.7
2018-03-24T01:37:00.470Z,3.75
2018-03-24T01:38:00.413Z,3.67
2018-03-24T01:39:00.218Z,3.61
2018-03-24T01:40:00.404Z,3.58
2018-03-24T01:40:59.817Z,3.58
2018-03-24T01:41:59.792Z,3.58
2018-03-24T01:43:00.040Z,3.6
2018-03-24T01:44:00.287Z,3.5
2018-03-24T01:45:00.267Z,3.52
2018-03-24T01:46:00.020Z,3.43
2018-03-24T01:46:59.975Z,3.4
2018-03-24T01:47:59.665Z,3.43
2018-03-24T01:48:59.759Z,3.4
2018-03-24T01:49:59.915Z,3.42
2018-03-24T01:50:59.868Z,3.46
2018-03-24T01:52:00.111Z,3.42
2018-03-24T01:53:00.090Z,3.42
2018-03-24T01:53:59.798Z,3.39
2018-03-24T01:54:59.844Z,3.44
2018-03-24T01:55:59.761Z,3.54
2018-03-24T01:56:59.735Z,3.46
2018-03-24T01:57:59.710Z,3.57
2018-03-24T01:59:00.646Z,3.54
2018-03-24T01:59:59.672Z,3.5
2018-03-24T02:00:59.738Z,3.6
2018-03-24T02:01:59.683Z,3.6
2018-03-24T02:02:59.767Z,3.6
2018-03-24T02:03:59.512Z,3.61
2018-03-24T02:04:59.640Z,3.54
2018-03-24T02:05:59.932Z,3.6
2018-03-24T02:06:59.637Z,3.64
2018-03-24T02:07:59.862Z,3.58
2018-03-24T02:08:59.639Z,3.61
2018-03-24T02:09:59.546Z,3.52
2018-03-24T02:10:59.782Z,3.53
2018-03-24T02:11:59.802Z,3.52
2018-03-24T02:12:59.486Z,3.6
2018-03-24T02:13:59.527Z,3.7
2018-03-24T02:14:59.728Z,3.68
2018-03-24T02:15:59.453Z,3.61
2018-03-24T02:16:59.404Z,3.6
2018-03-24T02:17:59.079Z,3.6
2018-03-24T02:18:59.651Z,3.57
2018-03-24T02:19:59.655Z,3.57
2018-03-24T02:20:59.394Z,3.58
2018-03-24T02:21:59.416Z,3.58
2018-03-24T02:22:59.384Z,3.44
2018-03-24T02:23:59.325Z,3.5
2018-03-24T02:24:58.955Z,3.4
2018-03-24T02:25:58.936Z,3.4
2018-03-24T02:26:59.463Z,3.43
2018-03-24T02:27:58.838Z,3.43
2018-03-24T02:28:59.159Z,3.39
2018-03-24T02:29:59.109Z,3.24
2018-03-24T02:30:59.091Z,3.36
2018-03-24T02:31:59.433Z,3.42
2018-03-24T02:32:59.073Z,3.25
2018-03-24T02:33:59.249Z,3.25
2018-03-24T02:34:59.345Z,3.36
2018-03-24T02:35:58.990Z,3.27
2018-03-24T02:36:59.031Z,3.27
2018-03-24T02:37:58.864Z,3.39
2018-03-24T02:38:59.200Z,3.24
2018-03-24T02:39:58.887Z,3.33
2018-03-24T02:40:58.886Z,3.36
2018-03-24T02:41:58.846Z,3.31
2018-03-24T02:42:58.812Z,3.42
2018-03-24T02:43:58.915Z,3.4
2018-03-24T02:44:58.795Z,3.44
2018-03-24T02:45:59.122Z,3.49
2018-03-24T02:46:58.734Z,3.52
2018-03-24T02:47:58.724Z,3.47
2018-03-24T02:48:58.961Z,3.52
2018-03-24T02:49:59.137Z,3.54
2018-03-24T02:50:58.962Z,3.47
2018-03-24T02:51:58.890Z,3.47
2018-03-24T02:52:58.591Z,3.46
2018-03-24T02:53:58.575Z,3.47
2018-03-24T02:54:58.595Z,3.58
2018-03-24T02:55:58.703Z,3.5
2018-03-24T02:56:58.883Z,3.47
2018-03-24T02:57:58.744Z,3.47
2018-03-24T02:58:58.513Z,3.52
2018-03-24T02:59:58.476Z,3.49
2018-03-24T03:00:58.423Z,3.53
2018-03-24T03:01:58.763Z,3.61
2018-03-24T03:02:58.286Z,3.49
2018-03-24T03:03:58.315Z,3.47
2018-03-24T03:04:58.249Z,3.47
2018-03-24T03:05:58.217Z,3.4
2018-03-24T03:06:58.198Z,3.39
2018-03-24T03:07:58.168Z,3.4
2018-03-24T03:08:58.158Z,3.39
2018-03-24T03:09:58.154Z,3.33
2018-03-24T03:10:58.496Z,3.42
2018-03-24T03:11:57.816Z,3.42
2018-03-24T03:12:58.066Z,3.28
2018-03-24T03:13:57.781Z,3.42
2018-03-24T03:14:58.288Z,3.39
2018-03-24T03:15:58.303Z,3.28
2018-03-24T03:16:57.972Z,3.42
2018-03-24T03:17:57.953Z,3.33
2018-03-24T03:18:57.662Z,3.44
2018-03-24T03:19:57.640Z,3.25
2018-03-24T03:20:57.891Z,3.33
2018-03-24T03:21:58.130Z,3.25
2018-03-24T03:22:57.840Z,3.27
2018-03-24T03:23:57.815Z,3.31
2018-03-24T03:24:58.058Z,3.21
2018-03-24T03:25:58.037Z,3.21
2018-03-24T03:26:57.485Z,3.24
2018-03-24T03:27:58.098Z,3.3
2018-03-24T03:28:57.730Z,3.28
2018-03-24T03:29:57.946Z,3.3
2018-03-24T03:30:57.728Z,3.2
2018-03-24T03:31:57.970Z,3.21
2018-03-24T03:32:57.609Z,3.24
2018-03-24T03:33:57.611Z,3.18
2018-03-24T03:34:57.906Z,3.16
2018-03-24T03:35:57.273Z,3.15
2018-03-24T03:36:57.800Z,3.21
2018-03-24T03:37:57.517Z,3.18
2018-03-24T03:38:57.635Z,3.31
2018-03-24T03:39:57.478Z,3.18
2018-03-24T03:40:57.438Z,3.21
2018-03-24T03:41:57.150Z,3.18
2018-03-24T03:42:57.666Z,3.18
2018-03-24T03:43:57.441Z,3.21
2018-03-24T03:44:57.607Z,3.12
2018-03-24T03:45:57.059Z,3.15
2018-03-24T03:46:57.578Z,3.13
2018-03-24T03:47:57.284Z,3.13
2018-03-24T03:48:57.265Z,3.05
2018-03-24T03:49:57.492Z,3.07
2018-03-24T03:50:56.948Z,3.07
2018-03-24T03:51:57.185Z,3.02
2018-03-24T03:52:57.432Z,3.03
2018-03-24T03:53:57.159Z,2.92
2018-03-24T03:54:57.121Z,2.89
2018-03-24T03:55:57.122Z,2.91
2018-03-24T03:56:57.346Z,2.85
2018-03-24T03:57:57.064Z,2.77
2018-03-24T03:58:57.237Z,2.84
2018-03-24T03:59:57.282Z,2.84
2018-03-24T04:00:57.258Z,2.82
2018-03-24T04:01:56.967Z,2.77
2018-03-24T04:02:56.943Z,2.79
2018-03-24T04:03:56.919Z,2.76
2018-03-24T04:04:56.906Z,2.81
2018-03-24T04:05:56.654Z,2.76
2018-03-24T04:06:57.119Z,2.74
2018-03-24T04:07:57.096Z,2.76
2018-03-24T04:08:57.081Z,2.81
2018-03-24T04:09:56.788Z,2.79
2018-03-24T04:10:56.494Z,2.74
2018-03-24T04:11:56.740Z,2.71
2018-03-24T04:12:56.452Z,2.67
2018-03-24T04:13:56.961Z,2.63
2018-03-24T04:14:56.717Z,2.69
2018-03-24T04:15:56.376Z,2.59
2018-03-24T04:16:56.356Z,2.53
2018-03-24T04:17:56.605Z,2.52
2018-03-24T04:18:56.306Z,2.48
2018-03-24T04:19:56.551Z,2.41
2018-03-24T04:20:56.532Z,2.37
2018-03-24T04:21:56.508Z,2.34
2018-03-24T04:22:56.747Z,2.37
2018-03-24T04:23:56.205Z,2.35
2018-03-24T04:24:56.704Z,2.31
2018-03-24T04:25:56.427Z,2.19
2018-03-24T04:26:56.393Z,2.26
2018-03-24T04:27:56.155Z,2.16
2018-03-24T04:28:56.352Z,2.09
2018-03-24T04:29:56.062Z,2.1
2018-03-24T04:30:56.623Z,2.12
2018-03-24T04:31:56.611Z,2.06
2018-03-24T04:32:56.262Z,1.99
2018-03-24T04:33:56.545Z,1.98
2018-03-24T04:34:56.483Z,1.99
2018-03-24T04:35:56.248Z,2.01
2018-03-24T04:36:55.946Z,1.99
2018-03-24T04:37:56.226Z,1.94
2018-03-24T04:38:56.128Z,1.94
2018-03-24T04:39:56.099Z,1.9
2018-03-24T04:40:56.340Z,1.82
2018-03-24T04:41:56.088Z,1.82
2018-03-24T04:42:55.774Z,1.82
2018-03-24T04:43:56.274Z,1.85
2018-03-24T04:44:56.056Z,1.89
2018-03-24T04:45:55.982Z,1.78
2018-03-24T04:46:55.948Z,1.69
2018-03-24T04:47:55.915Z,1.79
2018-03-24T04:48:55.988Z,1.75
2018-03-24T04:49:55.603Z,1.73
2018-03-24T04:50:56.119Z,1.65
2018-03-24T04:51:56.336Z,1.68
2018-03-24T04:52:56.180Z,1.71
2018-03-24T04:53:55.785Z,1.69
2018-03-24T04:54:55.491Z,1.64
2018-03-24T04:55:56.061Z,1.6
2018-03-24T04:56:55.732Z,1.58
2018-03-24T04:57:55.485Z,1.58
2018-03-24T04:58:55.398Z,1.57
2018-03-24T04:59:55.959Z,1.57
2018-03-24T05:00:55.618Z,1.6
2018-03-24T05:01:55.602Z,1.5
2018-03-24T05:02:55.589Z,1.52
2018-03-24T05:03:55.907Z,1.54
2018-03-24T05:04:55.259Z,1.52
2018-03-24T05:05:55.602Z,1.5
2018-03-24T05:06:55.476Z,1.52
2018-03-24T05:07:55.193Z,1.5
2018-03-24T05:08:55.434Z,1.5
2018-03-24T05:09:55.410Z,1.5
2018-03-24T05:10:55.647Z,1.47
2018-03-24T05:11:55.648Z,1.4
2018-03-24T05:12:55.389Z,1.5
2018-03-24T05:13:55.313Z,1.52
2018-03-24T05:14:55.293Z,1.4
2018-03-24T05:15:55.534Z,1.43
2018-03-24T05:16:55.247Z,1.55
2018-03-24T05:17:55.224Z,1.44
2018-03-24T05:18:55.480Z,1.43
2018-03-24T05:19:55.451Z,1.5
2018-03-24T05:20:55.211Z,1.51
2018-03-24T05:21:55.425Z,1.52
2018-03-24T05:22:55.394Z,1.47
2018-03-24T05:23:55.350Z,1.44
2018-03-24T05:24:55.327Z,1.43
2018-03-24T05:25:54.829Z,1.44
2018-03-24T05:26:55.176Z,1.4
2018-03-24T05:27:54.993Z,1.43
2018-03-24T05:28:54.984Z,1.47
2018-03-24T05:29:54.944Z,1.37
2018-03-24T05:30:54.666Z,1.39
2018-03-24T05:31:55.168Z,1.36
2018-03-24T05:32:55.135Z,1.37
2018-03-24T05:33:55.129Z,1.4
2018-03-24T05:34:54.833Z,1.36
2018-03-24T05:35:55.070Z,1.4
2018-03-24T05:36:55.059Z,1.39
2018-03-24T05:37:54.769Z,1.43
2018-03-24T05:38:54.474Z,1.4
2018-03-24T05:39:54.989Z,1.37
2018-03-24T05:40:54.692Z,1.5
2018-03-24T05:41:54.932Z,1.55
2018-03-24T05:42:54.648Z,1.37
2018-03-24T05:43:54.618Z,1.5
2018-03-24T05:44:54.649Z,1.52
2018-03-24T05:45:54.842Z,1.57
2018-03-24T05:46:54.610Z,1.61
2018-03-24T05:47:54.265Z,1.69
2018-03-24T05:48:54.505Z,1.68
2018-03-24T05:49:54.478Z,1.73
2018-03-24T05:50:54.467Z,1.71
2018-03-24T05:51:54.433Z,1.69
2018-03-24T05:52:54.693Z,1.75
2018-03-24T05:53:54.388Z,1.8
2018-03-24T05:54:54.098Z,1.87
2018-03-24T05:55:54.076Z,1.8
2018-03-24T05:56:54.323Z,1.83
2018-03-24T05:57:54.302Z,1.85
2018-03-24T05:59:26.295Z,1.87
2018-03-24T05:59:54.519Z,1.8
2018-03-24T06:00:54.223Z,1.83
2018-03-24T06:01:54.479Z,1.93
2018-03-24T06:02:54.178Z,1.9
2018-03-24T06:03:53.887Z,1.91
2018-03-24T06:04:53.871Z,1.99
2018-03-24T06:05:54.111Z,1.9
2018-03-24T06:06:53.822Z,1.99
2018-03-24T06:07:53.798Z,2.01
2018-03-24T06:08:54.312Z,2.06
2018-03-24T06:09:53.747Z,2.04
2018-03-24T06:10:53.997Z,2.04
2018-03-24T06:11:53.970Z,2.13
2018-03-24T06:12:54.223Z,2.23
2018-03-24T06:13:53.661Z,2.2
2018-03-24T06:14:54.179Z,2.26
2018-03-24T06:15:53.886Z,2.22
2018-03-24T06:16:54.130Z,2.28
2018-03-24T06:17:53.838Z,2.2
2018-03-24T06:18:53.812Z,2.28
2018-03-24T06:19:53.784Z,2.34
2018-03-24T06:20:54.028Z,2.31
2018-03-24T06:21:54.005Z,2.34
2018-03-24T06:22:53.988Z,2.3
2018-03-24T06:23:53.955Z,2.4
2018-03-24T06:24:53.404Z,2.35
2018-03-24T06:25:53.714Z,2.33
2018-03-24T06:26:53.357Z,2.38
2018-03-24T06:27:53.864Z,2.38
2018-03-24T06:28:53.590Z,2.38
2018-03-24T06:29:53.556Z,2.38
2018-03-24T06:30:53.272Z,2.46
2018-03-24T06:31:53.513Z,2.46
2018-03-24T06:32:53.486Z,2.51
2018-03-24T06:33:53.744Z,2.51
2018-03-24T06:34:53.184Z,2.56
2018-03-24T06:35:53.424Z,2.58
2018-03-24T06:36:53.685Z,2.61
2018-03-24T06:37:53.641Z,2.64
2018-03-24T06:38:53.397Z,2.69
2018-03-24T06:39:53.330Z,2.63
2018-03-24T06:40:53.041Z,2.67
2018-03-24T06:41:53.300Z,2.67
2018-03-24T06:42:53.270Z,2.63
2018-03-24T06:43:53.244Z,2.64
2018-03-24T06:44:53.714Z,2.73
2018-03-24T06:45:53.201Z,2.74
2018-03-24T06:46:53.442Z,2.7
2018-03-24T06:47:53.152Z,2.76
2018-03-24T06:48:53.122Z,2.77
2018-03-24T06:49:53.104Z,2.82
2018-03-24T06:50:53.098Z,2.82
2018-03-24T06:51:52.800Z,2.84
2018-03-24T06:52:53.043Z,2.94
2018-03-24T06:53:53.028Z,2.92
2018-03-24T06:54:53.016Z,3.06
2018-03-24T06:55:52.711Z,3.07
2018-03-24T06:56:52.947Z,3.09
2018-03-24T06:57:53.219Z,3.15
2018-03-24T06:58:52.913Z,3.18
2018-03-24T06:59:52.892Z,3.16
2018-03-24T07:00:52.592Z,3.27
2018-03-24T07:01:52.855Z,3.27
2018-03-24T07:02:52.827Z,3.23
2018-03-24T07:03:53.062Z,3.42
2018-03-24T07:04:52.773Z,3.42
2018-03-24T07:05:52.506Z,3.4
2018-03-24T07:06:53.003Z,3.43
2018-03-24T07:07:53.022Z,3.46
2018-03-24T07:08:52.425Z,3.46
2018-03-24T07:09:52.396Z,3.49
2018-03-24T07:10:52.376Z,3.6
2018-03-24T07:11:52.350Z,3.57
2018-03-24T07:12:52.337Z,3.57
2018-03-24T07:13:52.578Z,3.68
2018-03-24T07:14:52.826Z,3.72
2018-03-24T07:15:52.575Z,3.72
2018-03-24T07:16:52.775Z,3.82
2018-03-24T07:17:52.220Z,3.89
2018-03-24T07:18:52.744Z,4.01
2018-03-24T07:19:52.708Z,4.03
2018-03-24T07:20:52.159Z,4.03
2018-03-24T07:21:52.678Z,4.08
2018-03-24T07:22:52.382Z,4.21
2018-03-24T07:23:52.364Z,4.12
2018-03-24T07:24:52.342Z,4.28
2018-03-24T07:25:52.585Z,4.24
2018-03-24T07:26:52.296Z,4.34
2018-03-24T07:27:52.543Z,4.34
2018-03-24T07:28:52.606Z,4.36
2018-03-24T07:29:52.244Z,4.42
2018-03-24T07:30:52.209Z,4.44
2018-03-24T07:31:52.471Z,4.52
2018-03-24T07:32:52.461Z,4.64
2018-03-24T07:33:52.154Z,4.64
2018-03-24T07:34:52.133Z,4.65
2018-03-24T07:35:51.841Z,4.72
2018-03-24T07:36:52.085Z,4.84
2018-03-24T07:37:52.433Z,4.83
2018-03-24T07:38:52.047Z,4.91
2018-03-24T07:39:51.760Z,5.02
2018-03-24T07:40:52.264Z,5.16
2018-03-24T07:41:51.718Z,5.19
2018-03-24T07:42:51.961Z,5.27
2018-03-24T07:43:52.214Z,5.3
2018-03-24T07:44:51.976Z,5.41
2018-03-24T07:45:51.631Z,5.53
2018-03-24T07:46:52.209Z,5.64
2018-03-24T07:47:51.596Z,5.57
2018-03-24T07:48:51.841Z,5.64
2018-03-24T07:49:52.094Z,5.63
2018-03-24T07:50:51.801Z,5.73
2018-03-24T07:51:51.787Z,5.68
2018-03-24T07:52:51.504Z,5.71
2018-03-24T07:53:51.799Z,5.74
2018-03-24T07:54:51.720Z,5.81
2018-03-24T07:55:51.701Z,5.77
2018-03-24T07:56:51.682Z,5.98
2018-03-24T07:57:51.670Z,5.96
2018-03-24T07:58:52.047Z,5.92
2018-03-24T07:59:51.360Z,6.04
2018-03-24T08:00:51.872Z,6.07
2018-03-24T08:01:51.601Z,6.14
2018-03-24T08:02:51.296Z,6.25
2018-03-24T08:03:51.543Z,6.33
2018-03-24T08:04:51.811Z,6.29
2018-03-24T08:05:51.238Z,6.29
2018-03-24T08:06:51.216Z,6.4
2018-03-24T08:07:51.478Z,6.47
2018-03-24T08:08:51.451Z,6.5
2018-03-24T08:09:51.450Z,6.59
2018-03-24T08:10:51.432Z,6.54
2018-03-24T08:11:51.117Z,6.53
2018-03-24T08:12:51.378Z,6.47
2018-03-24T08:13:51.347Z,6.62
2018-03-24T08:14:51.334Z,6.65
2018-03-24T08:15:51.628Z,6.73
2018-03-24T08:16:51.680Z,6.71
2018-03-24T08:17:51.279Z,6.79
2018-03-24T08:18:51.264Z,6.87
2018-03-24T08:19:51.240Z,6.83
2018-03-24T08:20:51.487Z,6.99
2018-03-24T08:21:51.463Z,7.22
2018-03-24T08:22:51.493Z,7.74
2018-03-24T08:23:51.171Z,8.02
2018-03-24T08:24:51.146Z,8.32
2018-03-24T08:25:51.396Z,8.55
2018-03-24T08:26:51.116Z,8.45
2018-03-24T08:27:51.356Z,8.39
2018-03-24T08:28:50.809Z,8.51
2018-03-24T08:29:51.105Z,8.71
2018-03-24T08:30:51.033Z,9.06
2018-03-24T08:31:51.284Z,9.38
2018-03-24T08:32:51.027Z,9.85
2018-03-24T08:33:51.267Z,10
2018-03-24T08:34:50.712Z,10.56
2018-03-24T08:35:51.226Z,11.02
2018-03-24T08:36:51.212Z,11.32
2018-03-24T08:37:50.927Z,11.67
2018-03-24T08:38:50.909Z,11.57
2018-03-24T08:39:51.159Z,11.77
2018-03-24T08:40:51.143Z,11.85
2018-03-24T08:41:50.917Z,11.77
2018-03-24T08:42:50.855Z,11.86
2018-03-24T08:43:50.834Z,11.94
2018-03-24T08:44:50.566Z,12.21
2018-03-24T08:45:51.075Z,12.39
2018-03-24T08:46:50.531Z,12.39
2018-03-24T08:47:50.790Z,12.38
2018-03-24T08:48:51.043Z,12.48
2018-03-24T08:49:51.028Z,12.62
2018-03-24T08:50:50.748Z,12.57
2018-03-24T08:51:50.737Z,12.7
2018-03-24T08:52:50.460Z,12.82
2018-03-24T08:53:50.708Z,12.84
2018-03-24T08:54:50.701Z,13.04
2018-03-24T08:55:50.685Z,13.18
2018-03-24T08:56:50.418Z,13.04
2018-03-24T08:57:50.396Z,12.74
2018-03-24T08:58:50.922Z,12.66
2018-03-24T08:59:50.634Z,12.48
2018-03-24T09:00:50.904Z,12.62
2018-03-24T09:01:50.628Z,12.6
2018-03-24T09:02:50.876Z,12.52
2018-03-24T09:03:50.864Z,12.06
2018-03-24T09:04:50.856Z,11.94
2018-03-24T09:05:50.841Z,11.85
2018-03-24T09:06:50.565Z,11.53
2018-03-24T09:07:50.619Z,11.34
2018-03-24T09:08:50.894Z,11.31
2018-03-24T09:09:50.530Z,11.25
2018-03-24T09:10:50.786Z,11.06
2018-03-24T09:11:50.511Z,10.73
2018-03-24T09:12:50.758Z,10.76
2018-03-24T09:13:50.742Z,10.91
2018-03-24T09:14:50.732Z,11.16
2018-03-24T09:15:50.188Z,11.36
2018-03-24T09:16:50.442Z,11.77
2018-03-24T09:17:50.429Z,12.15
2018-03-24T09:18:50.153Z,12.57
2018-03-24T09:19:50.144Z,12.74
2018-03-24T09:20:50.660Z,12.7
2018-03-24T09:21:50.653Z,12.79
2018-03-24T09:22:50.377Z,12.75
2018-03-24T09:23:50.358Z,12.96
2018-03-24T09:24:50.345Z,12.89
2018-03-24T09:25:50.071Z,12.93
2018-03-24T09:26:50.590Z,13.17
2018-03-24T09:27:50.585Z,13.06
2018-03-24T09:28:50.041Z,12.93
2018-03-24T09:29:50.289Z,12.66
2018-03-24T09:30:50.537Z,12.63
2018-03-24T09:31:50.273Z,12.26
2018-03-24T09:32:50.518Z,12.27
2018-03-24T09:33:50.289Z,12.33
2018-03-24T09:34:50.242Z,12.38
2018-03-24T09:35:50.348Z,12.49
2018-03-24T09:36:50.207Z,12.64
2018-03-24T09:37:50.200Z,12.6
2018-03-24T09:38:50.191Z,12.38
2018-03-24T09:39:50.175Z,12.26
2018-03-24T09:40:50.436Z,12.11
2018-03-24T09:41:50.153Z,12.15
2018-03-24T09:42:50.164Z,12.24
2018-03-24T09:43:49.865Z,12.46
2018-03-24T09:44:49.854Z,12.69
2018-03-24T09:45:50.364Z,12.74
2018-03-24T09:46:50.145Z,12.67
2018-03-24T09:47:50.082Z,12.66
2018-03-24T09:48:50.074Z,12.62
2018-03-24T09:49:50.318Z,12.59
2018-03-24T09:50:50.314Z,13
2018-03-24T09:51:50.305Z,13.21
2018-03-24T09:52:49.835Z,13.29
2018-03-24T09:53:50.283Z,13.49
2018-03-24T09:54:50.280Z,13.83
2018-03-24T09:55:50.259Z,14.16
2018-03-24T09:56:50.457Z,14.14
2018-03-24T09:57:49.987Z,14.35
2018-03-24T09:58:50.236Z,14.67
2018-03-24T09:59:49.951Z,14.81
2018-03-24T10:00:49.944Z,14.9
2018-03-24T10:01:50.208Z,14.74
2018-03-24T10:02:50.186Z,14.68
2018-03-24T10:03:50.181Z,14.88
2018-03-24T10:04:49.910Z,14.91
2018-03-24T10:05:49.631Z,14.94
2018-03-24T10:06:49.891Z,14.93
2018-03-24T10:07:49.876Z,14.81
2018-03-24T10:08:49.870Z,14.86
2018-03-24T10:09:49.593Z,15.05
2018-03-24T10:10:50.119Z,15.12
2018-03-24T10:11:50.122Z,15.27
2018-03-24T10:12:49.832Z,15.27
2018-03-24T10:13:49.818Z,15.12
2018-03-24T10:14:50.088Z,15.09
2018-03-24T10:15:50.069Z,14.99
2018-03-24T10:16:49.529Z,15.02
2018-03-24T10:17:49.518Z,14.99
2018-03-24T10:18:50.052Z,15.13
2018-03-24T10:19:49.780Z,15.08
2018-03-24T10:20:49.495Z,15.3
2018-03-24T10:21:49.752Z,15.2
2018-03-24T10:22:49.752Z,15.13
2018-03-24T10:23:49.747Z,15.21
2018-03-24T10:24:49.493Z,15.31
2018-03-24T10:25:49.718Z,15.45
2018-03-24T10:26:49.983Z,15.54
2018-03-24T10:27:49.442Z,15.66
2018-03-24T10:28:49.701Z,15.67
2018-03-24T10:29:49.687Z,15.13
2018-03-24T10:30:49.683Z,14.64
2018-03-24T10:31:49.669Z,14.38
2018-03-24T10:32:49.930Z,14.46
2018-03-24T10:33:49.392Z,14.56
2018-03-24T10:34:49.646Z,14.44
2018-03-24T10:35:49.642Z,13.8
2018-03-24T10:36:49.633Z,13.29
2018-03-24T10:37:49.714Z,13.24
2018-03-24T10:38:49.619Z,13.02
2018-03-24T10:39:49.932Z,13.2
2018-03-24T10:40:49.604Z,13.76
2018-03-24T10:41:49.869Z,14.14
2018-03-24T10:42:49.605Z,14.5
2018-03-24T10:43:49.577Z,14.83
2018-03-24T10:44:49.570Z,15.13
2018-03-24T10:45:49.586Z,15.43
2018-03-24T10:46:49.831Z,15.17
2018-03-24T10:47:49.545Z,15.02
2018-03-24T10:48:49.537Z,14.93
2018-03-24T10:49:49.841Z,14.88
2018-03-24T10:50:49.263Z,14.8
2018-03-24T10:51:49.514Z,14.57
2018-03-24T10:52:49.245Z,13.83
2018-03-24T10:53:49.506Z,13.38
2018-03-24T10:54:49.536Z,13.25
2018-03-24T10:55:49.514Z,13.18
2018-03-24T10:56:49.737Z,13.15
2018-03-24T10:57:49.734Z,13.2
2018-03-24T10:58:49.733Z,13.59
2018-03-24T10:59:49.457Z,13.83
2018-03-24T11:00:49.433Z,14.16
2018-03-24T11:01:49.702Z,14.56
2018-03-24T11:02:49.157Z,14.78
2018-03-24T11:03:49.139Z,14.78
2018-03-24T11:04:49.397Z,14.78
2018-03-24T11:05:49.394Z,14.78
2018-03-24T11:06:49.381Z,14.78
2018-03-24T11:07:49.107Z,15.06
2018-03-24T11:08:49.626Z,15.51
2018-03-24T11:09:49.624Z,16.14
2018-03-24T11:10:49.346Z,16.42
2018-03-24T11:11:49.346Z,16.81
2018-03-24T11:12:49.333Z,16.8
2018-03-24T11:13:49.334Z,16.81
2018-03-24T11:14:49.593Z,16.71
2018-03-24T11:15:49.045Z,16.5
2018-03-24T11:16:49.306Z,16.49
2018-03-24T11:17:49.027Z,16.53
2018-03-24T11:18:49.027Z,16.55
2018-03-24T11:19:49.548Z,16.42
2018-03-24T11:20:49.546Z,16.33
2018-03-24T11:21:49.011Z,15.99
2018-03-24T11:22:49.532Z,15.82
2018-03-24T11:23:49.263Z,15.7
2018-03-24T11:24:49.518Z,16.03
2018-03-24T11:25:49.249Z,16.09
2018-03-24T11:26:49.502Z,15.63
2018-03-24T11:27:48.965Z,15.28
2018-03-24T11:28:49.236Z,14.99
2018-03-24T11:29:49.225Z,14.94
2018-03-24T11:30:49.230Z,14.9
2018-03-24T11:31:49.513Z,14.87
2018-03-24T11:32:49.466Z,14.74
2018-03-24T11:33:49.287Z,14.74
2018-03-24T11:34:49.460Z,14.87
2018-03-24T11:35:48.926Z,14.86
2018-03-24T11:36:49.476Z,14.53
2018-03-24T11:37:49.167Z,14.8
2018-03-24T11:38:48.909Z,15.02
2018-03-24T11:39:48.900Z,15.39
2018-03-24T11:40:49.152Z,15.74
2018-03-24T11:41:49.140Z,16.22
2018-03-24T11:42:49.134Z,16.44
2018-03-24T11:43:49.396Z,15.99
2018-03-24T11:44:49.432Z,15.81
2018-03-24T11:45:48.847Z,15.48
2018-03-24T11:46:49.108Z,15.41
2018-03-24T11:47:49.097Z,15.13
2018-03-24T11:48:49.090Z,14.84
2018-03-24T11:49:49.088Z,14.57
2018-03-24T11:50:49.085Z,14.49
2018-03-24T11:51:49.339Z,14.29
2018-03-24T11:52:49.067Z,14.21
2018-03-24T11:53:48.796Z,14.06
2018-03-24T11:54:49.058Z,14.09
2018-03-24T11:55:49.044Z,13.95
2018-03-24T11:56:49.297Z,13.91
2018-03-24T11:57:49.389Z,13.96
2018-03-24T11:58:49.290Z,13.89
2018-03-24T11:59:49.220Z,14.09
2018-03-24T12:00:48.740Z,14.09
2018-03-24T12:01:48.998Z,14.12
2018-03-24T12:02:49.249Z,13.91
2018-03-24T12:03:49.242Z,13.76
2018-03-24T12:04:48.978Z,13.62
2018-03-24T12:05:48.962Z,13.62
2018-03-24T12:06:48.950Z,13.89
2018-03-24T12:07:48.682Z,13.81
2018-03-24T12:08:48.669Z,13.99
2018-03-24T12:09:48.652Z,13.88
2018-03-24T12:10:49.179Z,13.96
2018-03-24T12:11:48.684Z,13.99
2018-03-24T12:12:49.165Z,13.91
2018-03-24T12:13:49.153Z,13.88
2018-03-24T12:14:48.917Z,13.94
2018-03-24T12:15:48.892Z,13.98
2018-03-24T12:16:48.927Z,13.99
2018-03-24T12:17:49.167Z,13.94
2018-03-24T12:18:48.873Z,13.94
2018-03-24T12:19:48.817Z,13.91
2018-03-24T12:20:48.803Z,13.81
2018-03-24T12:21:48.799Z,13.92
2018-03-24T12:22:49.105Z,13.79
2018-03-24T12:23:48.785Z,13.76
2018-03-24T12:24:48.813Z,13.67
2018-03-24T12:25:48.489Z,13.63
2018-03-24T12:26:48.752Z,13.65
2018-03-24T12:27:48.996Z,13.73
2018-03-24T12:28:49.136Z,13.73
2018-03-24T12:29:48.708Z,13.77
2018-03-24T12:30:48.835Z,13.91
2018-03-24T12:31:48.690Z,13.77
2018-03-24T12:32:49.096Z,13.71
2018-03-24T12:33:48.668Z,13.71
2018-03-24T12:34:48.987Z,13.91
2018-03-24T12:35:48.951Z,13.88
2018-03-24T12:36:48.631Z,14.04
2018-03-24T12:37:48.406Z,14.1
2018-03-24T12:38:48.612Z,14.27
2018-03-24T12:39:48.642Z,14.27
2018-03-24T12:40:48.866Z,14.32
2018-03-24T12:41:48.604Z,14.42
2018-03-24T12:42:48.948Z,14.49
2018-03-24T12:43:48.342Z,14.61
2018-03-24T12:44:48.281Z,14.49
2018-03-24T12:45:48.279Z,14.38
2018-03-24T12:46:48.283Z,14.04
2018-03-24T12:47:48.273Z,14.1
2018-03-24T12:48:48.528Z,14.04
2018-03-24T12:49:48.235Z,13.91
2018-03-24T12:50:48.842Z,14.07
2018-03-24T12:51:48.744Z,14.37
2018-03-24T12:52:48.491Z,14.54
2018-03-24T12:53:48.500Z,15.01
2018-03-24T12:54:48.488Z,15.39
2018-03-24T12:55:48.171Z,15.52
2018-03-24T12:56:48.431Z,15.27
2018-03-24T12:57:48.421Z,14.94
2018-03-24T12:58:48.478Z,15.03
2018-03-24T12:59:48.771Z,14.83
2018-03-24T13:00:48.404Z,15.05
2018-03-24T13:01:48.850Z,15.15
2018-03-24T13:02:48.835Z,15.31
2018-03-24T13:03:48.376Z,15.3
2018-03-24T13:04:48.683Z,15.27
2018-03-24T13:05:48.381Z,15.24
2018-03-24T13:06:48.697Z,15.05
2018-03-24T13:07:48.076Z,15.02
2018-03-24T13:08:48.069Z,14.78
2018-03-24T13:09:48.349Z,14.78
2018-03-24T13:10:48.361Z,15.03
2018-03-24T13:11:48.047Z,15.05